sensor_id;sensor_type;location;lat;lon;timestamp;P1;durP1;ratioP1;P2;durP2;ratioP2
41229;SDS011;26964;50.428;19.218;2023-08-20T00:00:04;17.0;;;13.5;;
41229;SDS011;26964;50.428;19.218;2023-08-20T00:01:03;16.8;;;13.3;;
41229;SDS011;26964;50.428;19.218;2023-08-20T00:02:02;20.1;;;14.1;;
41229;SDS011;26964;50.428;19.218;2023-08-20T00:03:02;17.6;;;13.5;;
41229;SDS011;26964;50.428;19.218;2023-08-20T00:04:02;16.0;;;13.6;;
41229;SDS011;26964;50.428;19.218;2023-08-20T00:05:02;16.9;;;14.2;;
41229;SDS011;26964;50.428;19.218;2023-08-20T00:06:02;15.7;;;13.5;;
41229;SDS011;26964;50.428;19.218;2023-08-20T00:07:02;15.3;;;13.7;;
41229;SDS011;26964;50.428;19.218;2023-08-20T00:08:02;14.3;;;12.3;;
41229;SDS011;26964;50.428;19.218;2023-08-20T00:09:02;19.1;;;13.9;;
41229;SDS011;26964;50.428;19.218;2023-08-20T00:10:02;16.4;;;13.4;;
41229;SDS011;26964;50.428;19.218;2023-08-20T00:11:02;14.8;;;13.1;;
41229;SDS011;26964;50.428;19.218;2023-08-20T00:12:02;16.8;;;13.1;;
41229;SDS011;26964;50.428;19.218;2023-08-20T00:13:02;15.6;;;12.8;;
41229;SDS011;26964;50.428;19.218;2023-08-20T00:14:02;17.1;;;12.8;;
41229;SDS011;26964;50.428;19.218;2023-08-20T00:15:03;17.1;;;13.8;;
41229;SDS011;26964;50.428;19.218;2023-08-20T00:16:02;15.9;;;13.7;;
41229;SDS011;26964;50.428;19.218;2023-08-20T00:17:02;20.9;;;14.4;;
41229;SDS011;26964;50.428;19.218;2023-08-20T00:18:02;16.2;;;12.5;;
41229;SDS011;26964;50.428;19.218;2023-08-20T00:19:02;19.9;;;13.1;;
41229;SDS011;26964;50.428;19.218;2023-08-20T00:20:02;16.2;;;13.2;;
41229;SDS011;26964;50.428;19.218;2023-08-20T00:21:02;18.8;;;13.7;;
41229;SDS011;26964;50.428;19.218;2023-08-20T00:22:02;20.4;;;13.5;;
41229;SDS011;26964;50.428;19.218;2023-08-20T00:23:02;22.4;;;13.9;;
41229;SDS011;26964;50.428;19.218;2023-08-20T00:24:02;22.5;;;15.0;;
41229;SDS011;26964;50.428;19.218;2023-08-20T00:25:02;26.6;;;15.2;;
41229;SDS011;26964;50.428;19.218;2023-08-20T00:26:02;24.8;;;15.3;;
41229;SDS011;26964;50.428;19.218;2023-08-20T00:27:02;22.2;;;13.9;;
41229;SDS011;26964;50.428;19.218;2023-08-20T00:28:03;21.5;;;13.8;;
41229;SDS011;26964;50.428;19.218;2023-08-20T00:29:02;22.6;;;13.4;;
41229;SDS011;26964;50.428;19.218;2023-08-20T00:30:02;24.3;;;14.7;;
41229;SDS011;26964;50.428;19.218;2023-08-20T00:31:02;23.1;;;13.9;;
41229;SDS011;26964;50.428;19.218;2023-08-20T00:32:02;21.4;;;12.6;;
41229;SDS011;26964;50.428;19.218;2023-08-20T00:33:02;25.8;;;14.1;;
41229;SDS011;26964;50.428;19.218;2023-08-20T00:34:02;28.3;;;14.9;;
41229;SDS011;26964;50.428;19.218;2023-08-20T00:35:02;25.0;;;13.9;;
41229;SDS011;26964;50.428;19.218;2023-08-20T00:36:02;30.9;;;14.1;;
41229;SDS011;26964;50.428;19.218;2023-08-20T00:37:02;26.0;;;14.2;;
41229;SDS011;26964;50.428;19.218;2023-08-20T00:38:02;30.1;;;15.1;;
41229;SDS011;26964;50.428;19.218;2023-08-20T00:39:02;25.1;;;14.0;;
41229;SDS011;26964;50.428;19.218;2023-08-20T00:40:02;24.0;;;13.5;;
41229;SDS011;26964;50.428;19.218;2023-08-20T00:41:02;26.7;;;13.7;;
41229;SDS011;26964;50.428;19.218;2023-08-20T00:42:02;25.4;;;13.4;;
41229;SDS011;26964;50.428;19.218;2023-08-20T00:43:02;23.9;;;14.0;;
41229;SDS011;26964;50.428;19.218;2023-08-20T00:44:02;27.9;;;15.2;;
41229;SDS011;26964;50.428;19.218;2023-08-20T00:45:02;27.1;;;13.9;;
41229;SDS011;26964;50.428;19.218;2023-08-20T00:46:02;26.1;;;14.5;;
41229;SDS011;26964;50.428;19.218;2023-08-20T00:47:02;33.1;;;15.1;;
41229;SDS011;26964;50.428;19.218;2023-08-20T00:48:02;26.7;;;14.5;;
41229;SDS011;26964;50.428;19.218;2023-08-20T00:49:02;33.4;;;16.0;;
41229;SDS011;26964;50.428;19.218;2023-08-20T00:50:02;20.9;;;14.9;;
41229;SDS011;26964;50.428;19.218;2023-08-20T00:51:02;27.0;;;14.8;;
41229;SDS011;26964;50.428;19.218;2023-08-20T00:52:02;25.4;;;15.2;;
41229;SDS011;26964;50.428;19.218;2023-08-20T00:53:02;33.6;;;16.0;;
41229;SDS011;26964;50.428;19.218;2023-08-20T00:54:02;32.6;;;15.5;;
41229;SDS011;26964;50.428;19.218;2023-08-20T00:55:02;28.1;;;15.3;;
41229;SDS011;26964;50.428;19.218;2023-08-20T00:56:02;28.5;;;14.6;;
41229;SDS011;26964;50.428;19.218;2023-08-20T00:57:02;32.7;;;15.4;;
41229;SDS011;26964;50.428;19.218;2023-08-20T00:58:02;27.5;;;14.1;;
41229;SDS011;26964;50.428;19.218;2023-08-20T00:59:02;27.8;;;15.0;;
41229;SDS011;26964;50.428;19.218;2023-08-20T01:00:03;27.6;;;14.9;;
41229;SDS011;26964;50.428;19.218;2023-08-20T01:01:02;29.2;;;14.5;;
41229;SDS011;26964;50.428;19.218;2023-08-20T01:02:02;24.2;;;14.8;;
41229;SDS011;26964;50.428;19.218;2023-08-20T01:03:02;26.5;;;15.8;;
41229;SDS011;26964;50.428;19.218;2023-08-20T01:04:02;22.8;;;14.7;;
41229;SDS011;26964;50.428;19.218;2023-08-20T01:05:02;30.3;;;16.3;;
41229;SDS011;26964;50.428;19.218;2023-08-20T01:07:03;26.8;;;15.0;;
41229;SDS011;26964;50.428;19.218;2023-08-20T01:09:03;25.4;;;15.2;;
41229;SDS011;26964;50.428;19.218;2023-08-20T01:10:04;26.4;;;15.3;;
41229;SDS011;26964;50.428;19.218;2023-08-20T01:11:03;20.7;;;15.1;;
41229;SDS011;26964;50.428;19.218;2023-08-20T01:12:02;26.0;;;16.6;;
41229;SDS011;26964;50.428;19.218;2023-08-20T01:13:02;26.8;;;16.1;;
41229;SDS011;26964;50.428;19.218;2023-08-20T01:14:02;28.3;;;16.7;;
41229;SDS011;26964;50.428;19.218;2023-08-20T01:15:02;25.9;;;15.8;;
41229;SDS011;26964;50.428;19.218;2023-08-20T01:16:02;28.1;;;16.8;;
41229;SDS011;26964;50.428;19.218;2023-08-20T01:17:02;27.1;;;15.9;;
41229;SDS011;26964;50.428;19.218;2023-08-20T01:18:02;22.2;;;15.9;;
41229;SDS011;26964;50.428;19.218;2023-08-20T01:19:02;33.4;;;16.8;;
41229;SDS011;26964;50.428;19.218;2023-08-20T01:20:02;29.1;;;16.9;;
41229;SDS011;26964;50.428;19.218;2023-08-20T01:21:02;25.8;;;16.0;;
41229;SDS011;26964;50.428;19.218;2023-08-20T01:28:04;23.9;;;16.4;;
41229;SDS011;26964;50.428;19.218;2023-08-20T01:29:02;26.4;;;17.0;;
41229;SDS011;26964;50.428;19.218;2023-08-20T01:30:02;23.2;;;16.6;;
41229;SDS011;26964;50.428;19.218;2023-08-20T01:31:02;23.4;;;16.6;;
41229;SDS011;26964;50.428;19.218;2023-08-20T01:32:02;23.9;;;16.7;;
41229;SDS011;26964;50.428;19.218;2023-08-20T01:33:02;24.2;;;17.1;;
41229;SDS011;26964;50.428;19.218;2023-08-20T01:34:02;26.9;;;17.7;;
41229;SDS011;26964;50.428;19.218;2023-08-20T01:35:02;23.7;;;17.7;;
41229;SDS011;26964;50.428;19.218;2023-08-20T01:36:01;24.6;;;17.0;;
41229;SDS011;26964;50.428;19.218;2023-08-20T01:37:02;20.2;;;17.0;;
41229;SDS011;26964;50.428;19.218;2023-08-20T01:38:02;28.6;;;17.5;;
41229;SDS011;26964;50.428;19.218;2023-08-20T01:39:02;27.7;;;16.9;;
41229;SDS011;26964;50.428;19.218;2023-08-20T01:40:02;25.3;;;18.4;;
41229;SDS011;26964;50.428;19.218;2023-08-20T01:41:02;24.9;;;17.6;;
41229;SDS011;26964;50.428;19.218;2023-08-20T01:42:02;23.7;;;16.6;;
41229;SDS011;26964;50.428;19.218;2023-08-20T01:43:02;26.1;;;17.8;;
41229;SDS011;26964;50.428;19.218;2023-08-20T01:44:01;24.2;;;17.4;;
41229;SDS011;26964;50.428;19.218;2023-08-20T01:45:02;21.5;;;16.5;;
41229;SDS011;26964;50.428;19.218;2023-08-20T01:46:02;21.6;;;16.0;;
41229;SDS011;26964;50.428;19.218;2023-08-20T01:47:02;24.5;;;17.3;;
41229;SDS011;26964;50.428;19.218;2023-08-20T01:48:02;24.1;;;16.9;;
41229;SDS011;26964;50.428;19.218;2023-08-20T01:49:02;20.1;;;17.2;;
41229;SDS011;26964;50.428;19.218;2023-08-20T01:50:02;21.5;;;16.5;;
41229;SDS011;26964;50.428;19.218;2023-08-20T01:51:02;23.1;;;17.5;;
41229;SDS011;26964;50.428;19.218;2023-08-20T01:52:02;24.0;;;17.8;;
41229;SDS011;26964;50.428;19.218;2023-08-20T01:53:02;22.6;;;17.9;;
41229;SDS011;26964;50.428;19.218;2023-08-20T01:54:02;25.2;;;18.4;;
41229;SDS011;26964;50.428;19.218;2023-08-20T01:55:03;25.0;;;18.4;;
41229;SDS011;26964;50.428;19.218;2023-08-20T01:56:01;24.3;;;18.0;;
41229;SDS011;26964;50.428;19.218;2023-08-20T01:57:02;23.8;;;18.7;;
41229;SDS011;26964;50.428;19.218;2023-08-20T01:58:02;24.5;;;18.5;;
41229;SDS011;26964;50.428;19.218;2023-08-20T01:59:01;24.1;;;18.2;;
41229;SDS011;26964;50.428;19.218;2023-08-20T02:00:02;23.9;;;17.7;;
41229;SDS011;26964;50.428;19.218;2023-08-20T02:01:02;21.9;;;18.0;;
41229;SDS011;26964;50.428;19.218;2023-08-20T02:02:01;19.8;;;17.6;;
41229;SDS011;26964;50.428;19.218;2023-08-20T02:03:02;24.7;;;18.4;;
41229;SDS011;26964;50.428;19.218;2023-08-20T02:04:02;22.0;;;18.4;;
41229;SDS011;26964;50.428;19.218;2023-08-20T02:05:02;24.1;;;17.8;;
41229;SDS011;26964;50.428;19.218;2023-08-20T02:06:01;24.9;;;18.7;;
41229;SDS011;26964;50.428;19.218;2023-08-20T02:07:02;25.8;;;18.6;;
41229;SDS011;26964;50.428;19.218;2023-08-20T02:08:02;25.1;;;18.0;;
41229;SDS011;26964;50.428;19.218;2023-08-20T02:09:02;27.0;;;19.8;;
41229;SDS011;26964;50.428;19.218;2023-08-20T02:10:02;24.6;;;19.1;;
41229;SDS011;26964;50.428;19.218;2023-08-20T02:11:02;25.5;;;19.1;;
41229;SDS011;26964;50.428;19.218;2023-08-20T02:12:02;23.5;;;18.9;;
41229;SDS011;26964;50.428;19.218;2023-08-20T02:13:02;23.9;;;19.5;;
41229;SDS011;26964;50.428;19.218;2023-08-20T02:14:02;23.9;;;18.9;;
41229;SDS011;26964;50.428;19.218;2023-08-20T02:15:02;26.1;;;19.6;;
41229;SDS011;26964;50.428;19.218;2023-08-20T02:16:02;25.5;;;19.2;;
41229;SDS011;26964;50.428;19.218;2023-08-20T02:17:01;25.7;;;19.9;;
41229;SDS011;26964;50.428;19.218;2023-08-20T02:18:02;26.3;;;20.3;;
41229;SDS011;26964;50.428;19.218;2023-08-20T02:19:02;25.3;;;20.0;;
41229;SDS011;26964;50.428;19.218;2023-08-20T02:20:02;25.4;;;19.1;;
41229;SDS011;26964;50.428;19.218;2023-08-20T02:21:02;23.7;;;19.4;;
41229;SDS011;26964;50.428;19.218;2023-08-20T02:22:02;23.3;;;18.8;;
41229;SDS011;26964;50.428;19.218;2023-08-20T02:23:02;29.4;;;19.8;;
41229;SDS011;26964;50.428;19.218;2023-08-20T02:24:01;27.1;;;20.2;;
41229;SDS011;26964;50.428;19.218;2023-08-20T02:25:02;24.7;;;19.6;;
41229;SDS011;26964;50.428;19.218;2023-08-20T02:26:02;26.1;;;19.1;;
41229;SDS011;26964;50.428;19.218;2023-08-20T02:27:01;25.1;;;19.5;;
41229;SDS011;26964;50.428;19.218;2023-08-20T02:28:02;25.4;;;19.4;;
41229;SDS011;26964;50.428;19.218;2023-08-20T02:29:02;23.7;;;19.5;;
41229;SDS011;26964;50.428;19.218;2023-08-20T02:30:02;24.5;;;19.5;;
41229;SDS011;26964;50.428;19.218;2023-08-20T02:31:03;23.0;;;19.9;;
41229;SDS011;26964;50.428;19.218;2023-08-20T02:32:01;23.2;;;19.4;;
41229;SDS011;26964;50.428;19.218;2023-08-20T02:33:02;27.1;;;20.4;;
41229;SDS011;26964;50.428;19.218;2023-08-20T02:34:01;24.9;;;20.0;;
41229;SDS011;26964;50.428;19.218;2023-08-20T02:35:02;25.9;;;20.4;;
41229;SDS011;26964;50.428;19.218;2023-08-20T02:36:02;26.9;;;22.5;;
41229;SDS011;26964;50.428;19.218;2023-08-20T02:37:02;26.8;;;20.3;;
41229;SDS011;26964;50.428;19.218;2023-08-20T02:38:02;28.4;;;20.7;;
41229;SDS011;26964;50.428;19.218;2023-08-20T02:39:01;26.6;;;20.2;;
41229;SDS011;26964;50.428;19.218;2023-08-20T02:40:02;29.3;;;20.2;;
41229;SDS011;26964;50.428;19.218;2023-08-20T02:41:02;26.7;;;20.9;;
41229;SDS011;26964;50.428;19.218;2023-08-20T02:42:02;28.5;;;20.3;;
41229;SDS011;26964;50.428;19.218;2023-08-20T02:43:01;28.9;;;21.9;;
41229;SDS011;26964;50.428;19.218;2023-08-20T02:44:02;26.1;;;21.1;;
41229;SDS011;26964;50.428;19.218;2023-08-20T02:45:02;31.2;;;21.6;;
41229;SDS011;26964;50.428;19.218;2023-08-20T02:46:01;26.6;;;21.1;;
41229;SDS011;26964;50.428;19.218;2023-08-20T02:47:02;24.8;;;21.5;;
41229;SDS011;26964;50.428;19.218;2023-08-20T02:48:02;25.9;;;20.8;;
41229;SDS011;26964;50.428;19.218;2023-08-20T02:49:02;28.5;;;21.8;;
41229;SDS011;26964;50.428;19.218;2023-08-20T02:50:02;26.1;;;20.8;;
41229;SDS011;26964;50.428;19.218;2023-08-20T02:51:01;29.8;;;22.2;;
41229;SDS011;26964;50.428;19.218;2023-08-20T02:52:02;27.4;;;22.3;;
41229;SDS011;26964;50.428;19.218;2023-08-20T02:53:02;29.9;;;22.1;;
41229;SDS011;26964;50.428;19.218;2023-08-20T02:54:01;26.3;;;22.0;;
41229;SDS011;26964;50.428;19.218;2023-08-20T02:55:02;29.6;;;22.2;;
41229;SDS011;26964;50.428;19.218;2023-08-20T02:56:01;26.9;;;22.9;;
41229;SDS011;26964;50.428;19.218;2023-08-20T02:57:02;25.6;;;21.9;;
41229;SDS011;26964;50.428;19.218;2023-08-20T02:58:02;34.2;;;23.2;;
41229;SDS011;26964;50.428;19.218;2023-08-20T02:59:02;26.4;;;23.3;;
41229;SDS011;26964;50.428;19.218;2023-08-20T03:00:02;30.8;;;22.9;;
41229;SDS011;26964;50.428;19.218;2023-08-20T03:01:02;26.5;;;23.0;;
41229;SDS011;26964;50.428;19.218;2023-08-20T03:02:01;27.8;;;23.6;;
41229;SDS011;26964;50.428;19.218;2023-08-20T03:03:02;25.8;;;22.9;;
41229;SDS011;26964;50.428;19.218;2023-08-20T03:04:02;30.9;;;23.5;;
41229;SDS011;26964;50.428;19.218;2023-08-20T03:05:02;27.8;;;22.6;;
41229;SDS011;26964;50.428;19.218;2023-08-20T03:06:01;26.9;;;23.3;;
41229;SDS011;26964;50.428;19.218;2023-08-20T03:07:02;26.2;;;22.1;;
41229;SDS011;26964;50.428;19.218;2023-08-20T03:08:01;26.8;;;23.6;;
41229;SDS011;26964;50.428;19.218;2023-08-20T03:09:01;27.5;;;22.5;;
41229;SDS011;26964;50.428;19.218;2023-08-20T03:10:02;27.9;;;23.3;;
41229;SDS011;26964;50.428;19.218;2023-08-20T03:11:01;30.4;;;23.8;;
41229;SDS011;26964;50.428;19.218;2023-08-20T03:12:01;27.6;;;23.3;;
41229;SDS011;26964;50.428;19.218;2023-08-20T03:13:02;27.0;;;23.2;;
41229;SDS011;26964;50.428;19.218;2023-08-20T03:14:01;26.2;;;22.3;;
41229;SDS011;26964;50.428;19.218;2023-08-20T03:15:01;25.0;;;22.3;;
41229;SDS011;26964;50.428;19.218;2023-08-20T03:16:01;24.3;;;21.0;;
41229;SDS011;26964;50.428;19.218;2023-08-20T03:17:01;23.9;;;21.3;;
41229;SDS011;26964;50.428;19.218;2023-08-20T03:18:02;27.2;;;21.6;;
41229;SDS011;26964;50.428;19.218;2023-08-20T03:19:01;27.6;;;22.4;;
41229;SDS011;26964;50.428;19.218;2023-08-20T03:20:01;26.9;;;22.8;;
41229;SDS011;26964;50.428;19.218;2023-08-20T03:21:01;26.1;;;22.6;;
41229;SDS011;26964;50.428;19.218;2023-08-20T03:22:02;26.7;;;21.4;;
41229;SDS011;26964;50.428;19.218;2023-08-20T03:23:01;23.6;;;20.8;;
41229;SDS011;26964;50.428;19.218;2023-08-20T03:24:01;23.5;;;21.0;;
41229;SDS011;26964;50.428;19.218;2023-08-20T03:25:02;25.5;;;20.6;;
41229;SDS011;26964;50.428;19.218;2023-08-20T03:26:03;24.9;;;21.0;;
41229;SDS011;26964;50.428;19.218;2023-08-20T03:27:01;25.1;;;21.0;;
41229;SDS011;26964;50.428;19.218;2023-08-20T03:28:01;22.4;;;20.0;;
41229;SDS011;26964;50.428;19.218;2023-08-20T03:29:01;23.0;;;20.5;;
41229;SDS011;26964;50.428;19.218;2023-08-20T03:30:02;22.8;;;20.4;;
41229;SDS011;26964;50.428;19.218;2023-08-20T03:31:02;24.0;;;20.0;;
41229;SDS011;26964;50.428;19.218;2023-08-20T03:32:02;25.8;;;21.1;;
41229;SDS011;26964;50.428;19.218;2023-08-20T03:33:02;25.3;;;21.5;;
41229;SDS011;26964;50.428;19.218;2023-08-20T03:34:02;26.9;;;21.1;;
41229;SDS011;26964;50.428;19.218;2023-08-20T03:35:01;24.0;;;21.3;;
41229;SDS011;26964;50.428;19.218;2023-08-20T03:36:01;25.1;;;21.0;;
41229;SDS011;26964;50.428;19.218;2023-08-20T03:37:02;27.6;;;21.9;;
41229;SDS011;26964;50.428;19.218;2023-08-20T03:38:01;23.0;;;20.5;;
41229;SDS011;26964;50.428;19.218;2023-08-20T03:39:01;24.1;;;20.7;;
41229;SDS011;26964;50.428;19.218;2023-08-20T03:40:02;23.6;;;20.9;;
41229;SDS011;26964;50.428;19.218;2023-08-20T03:41:01;23.6;;;21.0;;
41229;SDS011;26964;50.428;19.218;2023-08-20T03:42:01;25.8;;;20.4;;
41229;SDS011;26964;50.428;19.218;2023-08-20T03:43:02;22.8;;;20.5;;
41229;SDS011;26964;50.428;19.218;2023-08-20T03:44:01;23.7;;;21.2;;
41229;SDS011;26964;50.428;19.218;2023-08-20T03:45:01;21.6;;;19.3;;
41229;SDS011;26964;50.428;19.218;2023-08-20T03:46:02;22.6;;;20.2;;
41229;SDS011;26964;50.428;19.218;2023-08-20T03:47:01;24.1;;;19.2;;
41229;SDS011;26964;50.428;19.218;2023-08-20T03:48:02;23.1;;;19.3;;
41229;SDS011;26964;50.428;19.218;2023-08-20T03:49:04;20.9;;;18.5;;
41229;SDS011;26964;50.428;19.218;2023-08-20T03:50:04;22.1;;;18.4;;
41229;SDS011;26964;50.428;19.218;2023-08-20T03:51:02;20.3;;;18.2;;
41229;SDS011;26964;50.428;19.218;2023-08-20T03:52:02;22.3;;;18.3;;
41229;SDS011;26964;50.428;19.218;2023-08-20T03:53:01;21.4;;;18.6;;
41229;SDS011;26964;50.428;19.218;2023-08-20T03:54:02;21.3;;;19.0;;
41229;SDS011;26964;50.428;19.218;2023-08-20T03:55:02;21.6;;;19.3;;
41229;SDS011;26964;50.428;19.218;2023-08-20T03:56:01;21.0;;;18.6;;
41229;SDS011;26964;50.428;19.218;2023-08-20T03:57:01;20.8;;;18.6;;
41229;SDS011;26964;50.428;19.218;2023-08-20T03:58:02;22.1;;;19.6;;
41229;SDS011;26964;50.428;19.218;2023-08-20T03:59:01;22.0;;;18.6;;
41229;SDS011;26964;50.428;19.218;2023-08-20T04:00:04;20.9;;;18.6;;
41229;SDS011;26964;50.428;19.218;2023-08-20T04:01:01;22.5;;;20.1;;
41229;SDS011;26964;50.428;19.218;2023-08-20T04:02:01;21.2;;;19.0;;
41229;SDS011;26964;50.428;19.218;2023-08-20T04:03:01;23.2;;;20.8;;
41229;SDS011;26964;50.428;19.218;2023-08-20T04:04:02;22.6;;;19.8;;
41229;SDS011;26964;50.428;19.218;2023-08-20T04:05:02;22.8;;;18.4;;
41229;SDS011;26964;50.428;19.218;2023-08-20T04:06:01;23.6;;;20.0;;
41229;SDS011;26964;50.428;19.218;2023-08-20T04:07:01;22.1;;;19.8;;
41229;SDS011;26964;50.428;19.218;2023-08-20T04:08:01;22.9;;;20.0;;
41229;SDS011;26964;50.428;19.218;2023-08-20T04:09:02;21.8;;;19.5;;
41229;SDS011;26964;50.428;19.218;2023-08-20T04:10:01;24.0;;;19.9;;
41229;SDS011;26964;50.428;19.218;2023-08-20T04:11:01;23.5;;;20.7;;
41229;SDS011;26964;50.428;19.218;2023-08-20T04:12:01;21.8;;;19.5;;
41229;SDS011;26964;50.428;19.218;2023-08-20T04:13:01;24.1;;;20.6;;
41229;SDS011;26964;50.428;19.218;2023-08-20T04:14:02;22.3;;;20.0;;
41229;SDS011;26964;50.428;19.218;2023-08-20T04:15:02;24.6;;;22.1;;
41229;SDS011;26964;50.428;19.218;2023-08-20T04:16:02;25.4;;;22.3;;
41229;SDS011;26964;50.428;19.218;2023-08-20T04:17:01;25.7;;;22.4;;
41229;SDS011;26964;50.428;19.218;2023-08-20T04:18:02;27.0;;;22.9;;
41229;SDS011;26964;50.428;19.218;2023-08-20T04:19:02;27.3;;;22.9;;
41229;SDS011;26964;50.428;19.218;2023-08-20T04:20:01;29.8;;;24.2;;
41229;SDS011;26964;50.428;19.218;2023-08-20T04:21:01;27.5;;;24.2;;
41229;SDS011;26964;50.428;19.218;2023-08-20T04:22:01;31.8;;;25.5;;
41229;SDS011;26964;50.428;19.218;2023-08-20T04:23:01;28.9;;;24.8;;
41229;SDS011;26964;50.428;19.218;2023-08-20T04:24:01;30.2;;;25.4;;
41229;SDS011;26964;50.428;19.218;2023-08-20T04:25:01;31.8;;;24.7;;
41229;SDS011;26964;50.428;19.218;2023-08-20T04:26:01;31.0;;;25.9;;
41229;SDS011;26964;50.428;19.218;2023-08-20T04:27:01;31.3;;;25.4;;
41229;SDS011;26964;50.428;19.218;2023-08-20T04:28:01;33.9;;;26.9;;
41229;SDS011;26964;50.428;19.218;2023-08-20T04:29:01;30.3;;;25.7;;
41229;SDS011;26964;50.428;19.218;2023-08-20T04:30:01;28.3;;;24.8;;
41229;SDS011;26964;50.428;19.218;2023-08-20T04:31:01;30.8;;;27.1;;
41229;SDS011;26964;50.428;19.218;2023-08-20T04:32:01;31.2;;;26.2;;
41229;SDS011;26964;50.428;19.218;2023-08-20T04:33:01;31.3;;;26.2;;
41229;SDS011;26964;50.428;19.218;2023-08-20T04:34:01;29.8;;;26.7;;
41229;SDS011;26964;50.428;19.218;2023-08-20T04:35:01;29.3;;;25.9;;
41229;SDS011;26964;50.428;19.218;2023-08-20T04:36:01;31.1;;;25.9;;
41229;SDS011;26964;50.428;19.218;2023-08-20T04:37:01;30.4;;;26.5;;
41229;SDS011;26964;50.428;19.218;2023-08-20T04:38:01;34.0;;;26.7;;
41229;SDS011;26964;50.428;19.218;2023-08-20T04:39:01;29.7;;;26.4;;
41229;SDS011;26964;50.428;19.218;2023-08-20T04:40:01;31.7;;;26.9;;
41229;SDS011;26964;50.428;19.218;2023-08-20T04:41:01;30.8;;;26.3;;
41229;SDS011;26964;50.428;19.218;2023-08-20T04:42:01;30.3;;;26.1;;
41229;SDS011;26964;50.428;19.218;2023-08-20T04:43:01;33.2;;;26.6;;
41229;SDS011;26964;50.428;19.218;2023-08-20T04:44:01;30.1;;;26.9;;
41229;SDS011;26964;50.428;19.218;2023-08-20T04:45:01;34.5;;;26.3;;
41229;SDS011;26964;50.428;19.218;2023-08-20T04:46:01;30.8;;;27.5;;
41229;SDS011;26964;50.428;19.218;2023-08-20T04:47:01;29.4;;;26.2;;
41229;SDS011;26964;50.428;19.218;2023-08-20T04:48:01;31.9;;;26.5;;
41229;SDS011;26964;50.428;19.218;2023-08-20T04:49:02;29.6;;;26.5;;
41229;SDS011;26964;50.428;19.218;2023-08-20T04:50:01;32.0;;;27.1;;
41229;SDS011;26964;50.428;19.218;2023-08-20T04:51:01;29.5;;;26.0;;
41229;SDS011;26964;50.428;19.218;2023-08-20T04:52:01;31.5;;;28.1;;
41229;SDS011;26964;50.428;19.218;2023-08-20T04:53:01;33.8;;;28.2;;
41229;SDS011;26964;50.428;19.218;2023-08-20T04:54:01;32.3;;;27.9;;
41229;SDS011;26964;50.428;19.218;2023-08-20T04:55:02;31.0;;;27.7;;
41229;SDS011;26964;50.428;19.218;2023-08-20T04:56:01;34.8;;;27.4;;
41229;SDS011;26964;50.428;19.218;2023-08-20T04:57:01;29.9;;;26.7;;
41229;SDS011;26964;50.428;19.218;2023-08-20T04:58:01;33.9;;;28.1;;
41229;SDS011;26964;50.428;19.218;2023-08-20T04:59:01;30.1;;;26.7;;
41229;SDS011;26964;50.428;19.218;2023-08-20T05:00:02;30.0;;;26.8;;
41229;SDS011;26964;50.428;19.218;2023-08-20T05:01:03;28.7;;;25.7;;
41229;SDS011;26964;50.428;19.218;2023-08-20T05:02:01;29.9;;;25.2;;
41229;SDS011;26964;50.428;19.218;2023-08-20T05:03:01;29.7;;;24.7;;
41229;SDS011;26964;50.428;19.218;2023-08-20T05:04:01;31.1;;;25.1;;
41229;SDS011;26964;50.428;19.218;2023-08-20T05:05:01;29.3;;;25.3;;
41229;SDS011;26964;50.428;19.218;2023-08-20T05:06:01;29.4;;;26.0;;
41229;SDS011;26964;50.428;19.218;2023-08-20T05:07:01;29.7;;;25.0;;
41229;SDS011;26964;50.428;19.218;2023-08-20T05:08:01;28.3;;;22.9;;
41229;SDS011;26964;50.428;19.218;2023-08-20T05:09:01;28.9;;;23.4;;
41229;SDS011;26964;50.428;19.218;2023-08-20T05:10:01;27.1;;;22.2;;
41229;SDS011;26964;50.428;19.218;2023-08-20T05:11:01;26.3;;;23.1;;
41229;SDS011;26964;50.428;19.218;2023-08-20T05:12:01;29.3;;;23.7;;
41229;SDS011;26964;50.428;19.218;2023-08-20T05:13:01;28.0;;;24.1;;
41229;SDS011;26964;50.428;19.218;2023-08-20T05:14:01;26.3;;;22.4;;
41229;SDS011;26964;50.428;19.218;2023-08-20T05:15:01;26.8;;;23.3;;
41229;SDS011;26964;50.428;19.218;2023-08-20T05:16:01;26.4;;;23.3;;
41229;SDS011;26964;50.428;19.218;2023-08-20T05:17:01;24.8;;;22.3;;
41229;SDS011;26964;50.428;19.218;2023-08-20T05:18:01;30.2;;;23.2;;
41229;SDS011;26964;50.428;19.218;2023-08-20T05:19:01;24.1;;;21.6;;
41229;SDS011;26964;50.428;19.218;2023-08-20T05:20:01;24.4;;;21.7;;
41229;SDS011;26964;50.428;19.218;2023-08-20T05:21:01;29.3;;;23.3;;
41229;SDS011;26964;50.428;19.218;2023-08-20T05:22:01;25.4;;;22.6;;
41229;SDS011;26964;50.428;19.218;2023-08-20T05:23:01;28.2;;;21.7;;
41229;SDS011;26964;50.428;19.218;2023-08-20T05:24:01;25.5;;;22.7;;
41229;SDS011;26964;50.428;19.218;2023-08-20T05:25:01;26.8;;;22.2;;
41229;SDS011;26964;50.428;19.218;2023-08-20T05:26:01;25.6;;;22.4;;
41229;SDS011;26964;50.428;19.218;2023-08-20T05:28:01;25.3;;;22.5;;
41229;SDS011;26964;50.428;19.218;2023-08-20T05:29:01;27.5;;;23.5;;
41229;SDS011;26964;50.428;19.218;2023-08-20T05:30:01;28.0;;;23.0;;
41229;SDS011;26964;50.428;19.218;2023-08-20T05:31:01;29.4;;;22.7;;
41229;SDS011;26964;50.428;19.218;2023-08-20T05:32:01;27.2;;;22.8;;
41229;SDS011;26964;50.428;19.218;2023-08-20T05:33:01;27.1;;;24.1;;
41229;SDS011;26964;50.428;19.218;2023-08-20T05:34:01;25.5;;;22.7;;
41229;SDS011;26964;50.428;19.218;2023-08-20T05:35:01;25.6;;;22.8;;
41229;SDS011;26964;50.428;19.218;2023-08-20T05:36:01;28.6;;;23.3;;
41229;SDS011;26964;50.428;19.218;2023-08-20T05:37:01;26.1;;;23.3;;
41229;SDS011;26964;50.428;19.218;2023-08-20T05:38:01;26.4;;;21.9;;
41229;SDS011;26964;50.428;19.218;2023-08-20T05:39:01;26.5;;;23.0;;
41229;SDS011;26964;50.428;19.218;2023-08-20T05:40:02;27.4;;;24.0;;
41229;SDS011;26964;50.428;19.218;2023-08-20T05:41:01;25.8;;;22.7;;
41229;SDS011;26964;50.428;19.218;2023-08-20T05:42:01;27.4;;;23.7;;
41229;SDS011;26964;50.428;19.218;2023-08-20T05:43:01;28.2;;;23.3;;
41229;SDS011;26964;50.428;19.218;2023-08-20T05:44:01;26.4;;;23.3;;
41229;SDS011;26964;50.428;19.218;2023-08-20T05:45:25;26.2;;;23.4;;
41229;SDS011;26964;50.428;19.218;2023-08-20T05:46:25;20.5;;;17.7;;
41229;SDS011;26964;50.428;19.218;2023-08-20T05:47:25;27.5;;;22.7;;
41229;SDS011;26964;50.428;19.218;2023-08-20T05:48:25;27.9;;;23.7;;
41229;SDS011;26964;50.428;19.218;2023-08-20T05:49:25;25.8;;;23.0;;
41229;SDS011;26964;50.428;19.218;2023-08-20T05:50:26;28.1;;;22.6;;
41229;SDS011;26964;50.428;19.218;2023-08-20T05:51:25;29.1;;;24.9;;
41229;SDS011;26964;50.428;19.218;2023-08-20T05:52:25;27.4;;;22.7;;
41229;SDS011;26964;50.428;19.218;2023-08-20T05:53:25;27.0;;;22.3;;
41229;SDS011;26964;50.428;19.218;2023-08-20T05:54:25;25.4;;;22.7;;
41229;SDS011;26964;50.428;19.218;2023-08-20T05:55:25;27.6;;;23.1;;
41229;SDS011;26964;50.428;19.218;2023-08-20T05:56:25;25.6;;;22.6;;
41229;SDS011;26964;50.428;19.218;2023-08-20T05:57:25;27.7;;;23.9;;
41229;SDS011;26964;50.428;19.218;2023-08-20T05:58:24;27.5;;;22.7;;
41229;SDS011;26964;50.428;19.218;2023-08-20T05:59:24;25.1;;;22.4;;
41229;SDS011;26964;50.428;19.218;2023-08-20T06:00:25;25.9;;;22.4;;
41229;SDS011;26964;50.428;19.218;2023-08-20T06:01:24;25.3;;;22.6;;
41229;SDS011;26964;50.428;19.218;2023-08-20T06:02:25;28.8;;;22.6;;
41229;SDS011;26964;50.428;19.218;2023-08-20T06:03:24;26.6;;;23.1;;
41229;SDS011;26964;50.428;19.218;2023-08-20T06:04:24;27.5;;;23.7;;